Time;durP1;ratioP1;P1;durP2;ratioP2;P2;SDS_P1;SDS_P2;PMS_P1;PMS_P2;Temp;Humidity;BMP_temperature;BMP_pressure;BME280_temperature;BME280_humidity;BME280_pressure;Samples;Min_cycle;Max_cycle;Signal;HPM_P1;HPM_P2
2022/04/11 00:00:38;;;;;;;2.55;1.67;;;;;;;;;;6178414;23;20358;-49
2022/04/11 00:03:04;;;;;;;2.75;1.60;;;;;;;;;;6201905;23;20012;-48
2022/04/11 00:05:30;;;;;;;1.80;1.20;;;;;;;;;;6205821;23;20009;-50
2022/04/11 00:07:56;;;;;;;2.45;1.50;;;;;;;;;;6203361;23;20026;-50
2022/04/11 00:10:22;;;;;;;2.30;1.40;;;;;;;;;;6205015;23;20083;-50
2022/04/11 00:12:48;;;;;;;2.28;1.40;;;;;;;;;;6177585;23;20008;-48
2022/04/11 00:15:15;;;;;;;1.48;1.10;;;;;;;;;;6204421;23;20072;-51
2022/04/11 00:17:41;;;;;;;1.90;1.40;;;;;;;;;;6204275;23;20013;-50
2022/04/11 00:20:07;;;;;;;3.75;1.95;;;;;;;;;;6204530;23;20075;-50
2022/04/11 00:22:34;;;;;;;3.53;1.85;;;;;;;;;;6205136;23;20004;-47
2022/04/11 00:25:01;;;;;;;3.05;1.90;;;;;;;;;;6204802;23;20054;-47
2022/04/11 00:27:27;;;;;;;3.20;1.80;;;;;;;;;;6205104;23;20015;-49
2022/04/11 00:29:53;;;;;;;5.13;3.05;;;;;;;;;;6203644;23;19997;-51
2022/04/11 00:32:19;;;;;;;4.88;2.97;;;;;;;;;;6176717;23;20051;-49
2022/04/11 00:34:45;;;;;;;4.30;2.70;;;;;;;;;;6204100;23;20436;-49
2022/04/11 00:37:11;;;;;;;4.38;2.42;;;;;;;;;;6204842;23;20016;-49
2022/04/11 00:39:37;;;;;;;2.47;1.95;;;;;;;;;;6203737;23;20048;-50
2022/04/11 00:42:07;;;;;;;2.88;1.85;;;;;;;;;;6204925;23;20008;-49
2022/04/11 00:44:34;;;;;;;2.28;1.40;;;;;;;;;;6204119;23;20029;-51
2022/04/11 00:47:00;;;;;;;2.33;1.50;;;;;;;;;;6204492;23;20007;-48
2022/04/11 00:49:27;;;;;;;1.23;1.08;;;;;;;;;;6205372;23;20032;-48
2022/04/11 00:51:53;;;;;;;1.95;1.20;;;;;;;;;;6205057;23;20032;-48
2022/04/11 00:54:20;;;;;;;1.33;0.90;;;;;;;;;;6203367;23;20011;-50
2022/04/11 00:56:47;;;;;;;1.67;1.00;;;;;;;;;;6204742;23;20033;-50
2022/04/11 00:59:15;;;;;;;1.23;0.88;;;;;;;;;;6178010;23;20511;-50
2022/04/11 01:01:41;;;;;;;1.83;1.13;;;;;;;;;;6204290;23;20055;-48
2022/04/11 01:04:23;;;;;;;1.60;0.93;;;;;;;;;;6204230;23;20040;-51
2022/04/11 01:06:49;;;;;;;1.58;1.13;;;;;;;;;;6177598;23;20398;-50
2022/04/11 01:09:15;;;;;;;1.30;1.00;;;;;;;;;;6204559;23;20043;-48
2022/04/11 01:11:41;;;;;;;1.35;0.98;;;;;;;;;;6204561;23;20377;-48
2022/04/11 01:14:07;;;;;;;1.33;1.00;;;;;;;;;;6177320;23;20039;-51
2022/04/11 01:16:33;;;;;;;1.33;0.95;;;;;;;;;;6203922;23;20000;-46
2022/04/11 01:19:00;;;;;;;1.70;0.88;;;;;;;;;;6204812;23;20027;-45
2022/04/11 01:21:31;;;;;;;1.30;0.90;;;;;;;;;;6204380;23;20083;-50
2022/04/11 01:23:57;;;;;;;1.67;1.00;;;;;;;;;;6205256;23;20004;-48
2022/04/11 01:26:23;;;;;;;3.15;1.00;;;;;;;;;;6204963;23;20032;-47
2022/04/11 01:28:51;;;;;;;1.50;0.90;;;;;;;;;;6204644;23;20001;-47
2022/04/11 01:31:17;;;;;;;1.40;0.82;;;;;;;;;;6205509;23;20131;-48
2022/04/11 01:33:43;;;;;;;1.90;0.90;;;;;;;;;;6204985;23;20048;-50
2022/04/11 01:36:09;;;;;;;1.90;1.00;;;;;;;;;;6204730;23;20032;-49
2022/04/11 01:38:35;;;;;;;1.65;0.80;;;;;;;;;;6204682;23;20001;-47
2022/04/11 01:41:01;;;;;;;1.00;0.80;;;;;;;;;;6207347;23;20087;-49
2022/04/11 01:43:27;;;;;;;1.95;1.40;;;;;;;;;;6209290;23;20020;-50
2022/04/11 01:45:53;;;;;;;2.60;0.98;;;;;;;;;;6208483;23;20003;-50
2022/04/11 01:48:19;;;;;;;1.65;0.90;;;;;;;;;;6209253;23;20051;-50
2022/04/11 01:50:45;;;;;;;1.00;0.80;;;;;;;;;;6208822;23;20071;-49
2022/04/11 01:53:13;;;;;;;1.58;0.90;;;;;;;;;;6208914;23;20005;-49
2022/04/11 01:55:39;;;;;;;1.35;0.90;;;;;;;;;;6208247;23;19997;-50
2022/04/11 01:58:06;;;;;;;2.95;0.93;;;;;;;;;;6208506;23;20032;-47
2022/04/11 02:00:33;;;;;;;1.05;0.85;;;;;;;;;;6207127;23;20004;-48
2022/04/11 02:02:59;;;;;;;1.33;0.80;;;;;;;;;;6183691;23;20607;-48
2022/04/11 02:05:26;;;;;;;0.70;0.70;;;;;;;;;;6207544;23;20087;-49
2022/04/11 02:07:52;;;;;;;0.75;0.70;;;;;;;;;;6209111;23;20008;-48
2022/04/11 02:10:19;;;;;;;0.70;0.70;;;;;;;;;;6208696;23;20450;-49
2022/04/11 02:12:47;;;;;;;0.98;0.80;;;;;;;;;;6208488;23;20001;-50
2022/04/11 02:15:14;;;;;;;1.27;0.90;;;;;;;;;;6208271;23;20000;-51
2022/04/11 02:17:40;;;;;;;1.60;0.70;;;;;;;;;;6208558;23;20028;-47
2022/04/11 02:20:07;;;;;;;1.00;0.70;;;;;;;;;;6208931;23;20008;-49
2022/04/11 02:22:49;;;;;;;0.88;0.73;;;;;;;;;;6208812;23;20012;-50
2022/04/11 02:25:16;;;;;;;0.70;0.60;;;;;;;;;;6208466;23;20007;-49
2022/04/11 02:27:42;;;;;;;1.35;0.95;;;;;;;;;;6208709;23;20005;-51
2022/04/11 02:30:09;;;;;;;1.30;0.82;;;;;;;;;;6208547;23;20001;-51
2022/04/11 02:32:35;;;;;;;2.13;0.73;;;;;;;;;;6208523;23;19997;-48
2022/04/11 02:35:01;;;;;;;1.52;0.70;;;;;;;;;;6208788;23;20012;-51
2022/04/11 02:37:27;;;;;;;0.90;0.70;;;;;;;;;;6208856;23;20009;-50
2022/04/11 02:39:53;;;;;;;0.90;0.70;;;;;;;;;;6208864;23;20370;-48
2022/04/11 02:42:26;;;;;;;1.15;0.50;;;;;;;;;;6208505;23;20004;-47
2022/04/11 02:44:52;;;;;;;0.68;0.50;;;;;;;;;;6207757;23;20004;-48
2022/04/11 02:47:19;;;;;;;3.08;0.70;;;;;;;;;;6208876;23;20001;-50
2022/04/11 02:49:45;;;;;;;0.98;0.70;;;;;;;;;;6208101;23;20084;-49
2022/04/11 02:52:12;;;;;;;0.47;0.47;;;;;;;;;;6208677;23;20428;-47
2022/04/11 02:54:38;;;;;;;1.50;0.55;;;;;;;;;;6207951;23;20040;-51
2022/04/11 02:57:05;;;;;;;0.90;0.50;;;;;;;;;;6207598;23;20123;-46
2022/04/11 02:59:32;;;;;;;1.38;0.50;;;;;;;;;;6208618;23;20315;-49
2022/04/11 03:01:58;;;;;;;1.05;0.57;;;;;;;;;;6208580;23;20009;-50
2022/04/11 03:04:24;;;;;;;2.95;1.02;;;;;;;;;;6208285;23;20047;-50
2022/04/11 03:06:50;;;;;;;1.13;0.75;;;;;;;;;;6206992;23;20003;-49
2022/04/11 03:09:16;;;;;;;1.75;0.70;;;;;;;;;;6208359;23;20323;-49
2022/04/11 03:11:42;;;;;;;1.38;0.80;;;;;;;;;;6207188;23;20397;-50
2022/04/11 03:14:08;;;;;;;1.02;0.77;;;;;;;;;;6206755;23;20539;-51
2022/04/11 03:16:34;;;;;;;1.48;0.77;;;;;;;;;;6207022;23;20426;-48
2022/04/11 03:19:01;;;;;;;0.98;0.60;;;;;;;;;;6208287;23;20509;-50
2022/04/11 03:21:27;;;;;;;0.68;0.55;;;;;;;;;;6207942;23;20080;-47
2022/04/11 03:23:53;;;;;;;2.95;0.73;;;;;;;;;;6207708;23;20102;-48
2022/04/11 03:26:19;;;;;;;1.52;0.63;;;;;;;;;;6180847;23;20446;-50
2022/04/11 03:28:45;;;;;;;1.02;0.68;;;;;;;;;;6207693;23;20000;-48
2022/04/11 03:31:11;;;;;;;2.03;0.98;;;;;;;;;;6207990;23;20446;-50
2022/04/11 03:33:37;;;;;;;1.08;0.68;;;;;;;;;;6207992;23;20016;-51
2022/04/11 03:36:05;;;;;;;2.60;0.88;;;;;;;;;;6208199;23;20012;-49
2022/04/11 03:38:31;;;;;;;1.30;0.68;;;;;;;;;;6208454;23;20080;-48
2022/04/11 03:40:57;;;;;;;2.10;0.75;;;;;;;;;;6207706;23;20012;-50
2022/04/11 03:43:23;;;;;;;1.58;0.70;;;;;;;;;;6208173;23;20666;-49
2022/04/11 03:45:49;;;;;;;0.77;0.70;;;;;;;;;;6206598;23;20080;-49
2022/04/11 03:48:15;;;;;;;3.13;0.80;;;;;;;;;;6207858;23;20383;-50
2022/04/11 03:50:41;;;;;;;1.50;0.80;;;;;;;;;;6207560;23;20461;-50
2022/04/11 03:53:07;;;;;;;2.70;0.85;;;;;;;;;;6207441;23;20001;-49
2022/04/11 03:55:33;;;;;;;3.63;1.00;;;;;;;;;;6207141;23;20693;-49
2022/04/11 03:57:59;;;;;;;2.30;0.90;;;;;;;;;;6207945;23;20007;-49
2022/04/11 04:00:26;;;;;;;3.20;1.00;;;;;;;;;;6206625;23;20420;-47
2022/04/11 04:02:52;;;;;;;2.13;0.80;;;;;;;;;;6206135;23;20031;-50
2022/04/11 04:05:18;;;;;;;1.10;0.60;;;;;;;;;;6205597;23;20016;-47
2022/04/11 04:07:44;;;;;;;1.27;0.80;;;;;;;;;;6206401;23;20368;-50
2022/04/11 04:10:11;;;;;;;1.92;0.80;;;;;;;;;;6206772;23;20020;-48
2022/04/11 04:12:37;;;;;;;2.53;0.60;;;;;;;;;;6207437;23;20515;-48
2022/04/11 04:15:03;;;;;;;1.70;0.70;;;;;;;;;;6207129;23;20041;-50
2022/04/11 04:17:29;;;;;;;1.83;0.80;;;;;;;;;;6208092;23;20005;-50
2022/04/11 04:19:55;;;;;;;2.03;0.82;;;;;;;;;;6180831;23;20015;-49
2022/04/11 04:22:21;;;;;;;0.88;0.70;;;;;;;;;;6208030;23;20345;-51
2022/04/11 04:24:48;;;;;;;1.33;0.57;;;;;;;;;;6206698;23;20005;-49
2022/04/11 04:27:14;;;;;;;1.67;0.65;;;;;;;;;;6207630;23;20334;-50
2022/04/11 04:29:40;;;;;;;1.02;0.52;;;;;;;;;;6206948;23;20024;-48
2022/04/11 04:32:06;;;;;;;1.00;0.60;;;;;;;;;;6207122;23;20055;-50
2022/04/11 04:34:32;;;;;;;0.85;0.70;;;;;;;;;;6206985;23;20006;-48
2022/04/11 04:36:59;;;;;;;2.05;0.63;;;;;;;;;;6208539;23;20012;-50
2022/04/11 04:39:26;;;;;;;2.05;0.80;;;;;;;;;;6206946;23;20028;-51
2022/04/11 04:41:52;;;;;;;2.25;1.08;;;;;;;;;;6207653;23;20759;-49
2022/04/11 04:44:18;;;;;;;2.92;0.70;;;;;;;;;;6207118;23;20039;-47
2022/04/11 04:46:44;;;;;;;1.33;0.63;;;;;;;;;;6207363;23;20438;-50
2022/04/11 04:49:10;;;;;;;2.35;0.88;;;;;;;;;;6206744;23;19997;-49
2022/04/11 04:51:36;;;;;;;2.28;1.00;;;;;;;;;;6207036;23;20087;-48
2022/04/11 04:54:02;;;;;;;1.65;0.70;;;;;;;;;;6207248;23;20005;-49
2022/04/11 04:56:29;;;;;;;2.13;0.55;;;;;;;;;;6207474;23;20609;-50
2022/04/11 04:58:55;;;;;;;1.52;1.00;;;;;;;;;;6206603;23;20001;-47
2022/04/11 05:01:21;;;;;;;4.93;1.20;;;;;;;;;;6207269;23;20005;-47
2022/04/11 05:03:47;;;;;;;2.45;0.90;;;;;;;;;;6207126;23;20342;-47
2022/04/11 05:06:13;;;;;;;1.13;0.75;;;;;;;;;;6206943;23;20001;-49
2022/04/11 05:08:39;;;;;;;2.78;1.10;;;;;;;;;;6206661;23;20005;-48
2022/04/11 05:11:05;;;;;;;2.15;0.93;;;;;;;;;;6179497;23;20379;-47
2022/04/11 05:13:32;;;;;;;3.20;0.90;;;;;;;;;;6207154;23;20364;-48
2022/04/11 05:15:58;;;;;;;4.43;1.20;;;;;;;;;;6206984;23;20005;-48
2022/04/11 05:18:24;;;;;;;2.40;1.10;;;;;;;;;;6206121;23;20353;-50
2022/04/11 05:20:51;;;;;;;1.63;0.93;;;;;;;;;;6206079;23;20016;-46
2022/04/11 05:23:18;;;;;;;1.60;0.70;;;;;;;;;;6206196;23;20008;-48
2022/04/11 05:25:44;;;;;;;2.47;1.00;;;;;;;;;;6206921;23;20000;-51
2022/04/11 05:28:11;;;;;;;2.17;1.00;;;;;;;;;;6206544;23;20001;-51
2022/04/11 05:30:37;;;;;;;3.00;1.20;;;;;;;;;;6206437;23;20010;-48
2022/04/11 05:33:03;;;;;;;2.97;1.13;;;;;;;;;;6206774;23;20001;-50
2022/04/11 05:35:29;;;;;;;2.08;1.23;;;;;;;;;;6207743;23;20402;-50
2022/04/11 05:37:56;;;;;;;2.40;0.85;;;;;;;;;;6207414;23;20541;-50
2022/04/11 05:40:22;;;;;;;2.75;1.00;;;;;;;;;;6206304;23;20641;-50
2022/04/11 05:42:48;;;;;;;1.05;0.70;;;;;;;;;;6205882;23;20009;-49
2022/04/11 05:45:14;;;;;;;1.55;1.15;;;;;;;;;;6206764;23;20452;-49
2022/04/11 05:47:40;;;;;;;1.80;0.93;;;;;;;;;;6206879;23;20008;-51
2022/04/11 05:50:07;;;;;;;2.15;0.93;;;;;;;;;;6206832;23;20393;-48
2022/04/11 05:52:33;;;;;;;1.58;0.95;;;;;;;;;;6206339;23;20055;-48
2022/04/11 05:54:59;;;;;;;1.13;0.80;;;;;;;;;;6207771;23;20012;-47
2022/04/11 05:57:25;;;;;;;1.05;0.80;;;;;;;;;;6206436;23;20009;-51
2022/04/11 05:59:51;;;;;;;0.80;0.70;;;;;;;;;;6205375;23;20016;-48
2022/04/11 06:02:17;;;;;;;1.10;0.80;;;;;;;;;;6206939;23;20430;-50
2022/04/11 06:04:43;;;;;;;1.40;0.82;;;;;;;;;;6205597;23;20521;-48
2022/04/11 06:07:09;;;;;;;1.50;0.95;;;;;;;;;;6206597;23;20000;-49
2022/04/11 06:09:35;;;;;;;2.08;1.10;;;;;;;;;;6206200;23;20008;-50
2022/04/11 06:12:02;;;;;;;2.10;1.42;;;;;;;;;;6206502;23;20083;-48
2022/04/11 06:14:28;;;;;;;1.88;1.05;;;;;;;;;;6206593;23;20544;-50
2022/04/11 06:16:54;;;;;;;2.80;1.13;;;;;;;;;;6206514;23;20088;-50
2022/04/11 06:19:20;;;;;;;2.05;1.15;;;;;;;;;;6206478;23;20011;-51
2022/04/11 06:21:46;;;;;;;3.28;1.30;;;;;;;;;;6206085;23;20728;-51
2022/04/11 06:24:12;;;;;;;2.55;1.30;;;;;;;;;;6206150;23;20418;-51
2022/04/11 06:26:39;;;;;;;1.55;0.88;;;;;;;;;;6207562;23;19996;-48
2022/04/11 06:29:05;;;;;;;2.53;1.13;;;;;;;;;;6207905;23;20001;-50
2022/04/11 06:31:31;;;;;;;1.63;1.13;;;;;;;;;;6207459;23;20036;-47
2022/04/11 06:33:57;;;;;;;2.28;0.90;;;;;;;;;;6209342;23;20025;-48
2022/04/11 06:36:23;;;;;;;1.52;0.90;;;;;;;;;;6208017;23;20024;-50
2022/04/11 06:38:49;;;;;;;1.10;0.70;;;;;;;;;;6207911;23;20307;-49
2022/04/11 06:41:15;;;;;;;1.67;0.80;;;;;;;;;;6207965;23;20004;-50
2022/04/11 06:43:41;;;;;;;2.13;1.00;;;;;;;;;;6207485;23;20009;-47
2022/04/11 06:46:07;;;;;;;2.05;0.90;;;;;;;;;;6208082;23;20350;-47
2022/04/11 06:48:34;;;;;;;2.47;1.10;;;;;;;;;;6207810;23;20492;-47
2022/04/11 06:51:00;;;;;;;1.80;0.90;;;;;;;;;;6208610;23;20773;-50
2022/04/11 06:53:26;;;;;;;1.25;0.88;;;;;;;;;;6208264;23;20453;-50
2022/04/11 06:55:52;;;;;;;1.00;0.70;;;;;;;;;;6208245;23;20380;-50
2022/04/11 06:58:18;;;;;;;1.33;0.88;;;;;;;;;;6207803;23;20395;-49
2022/04/11 07:00:44;;;;;;;2.13;0.85;;;;;;;;;;6208208;23;20461;-48
2022/04/11 07:03:11;;;;;;;0.80;0.80;;;;;;;;;;6208096;23;19997;-49
2022/04/11 07:05:37;;;;;;;1.13;0.77;;;;;;;;;;6207758;23;20015;-46
2022/04/11 07:08:04;;;;;;;1.73;0.60;;;;;;;;;;6207855;23;19996;-50
2022/04/11 07:10:31;;;;;;;1.15;0.85;;;;;;;;;;6208756;23;20011;-51
2022/04/11 07:12:58;;;;;;;1.20;0.85;;;;;;;;;;6208820;23;20001;-50
2022/04/11 07:15:24;;;;;;;1.20;0.70;;;;;;;;;;6208033;23;20334;-50
2022/04/11 07:17:50;;;;;;;1.45;0.75;;;;;;;;;;6206463;23;20015;-48
2022/04/11 07:20:16;;;;;;;1.27;0.80;;;;;;;;;;6205400;23;20000;-49
2022/04/11 07:22:43;;;;;;;1.60;0.90;;;;;;;;;;6207335;23;20399;-47
2022/04/11 07:25:09;;;;;;;2.45;0.85;;;;;;;;;;6206528;23;20572;-52
2022/04/11 07:27:36;;;;;;;1.20;0.55;;;;;;;;;;6207102;23;20059;-50
2022/04/11 07:30:02;;;;;;;1.45;0.88;;;;;;;;;;6207056;23;20004;-49
2022/04/11 07:32:29;;;;;;;1.00;0.70;;;;;;;;;;6208454;23;19997;-52
2022/04/11 07:34:58;;;;;;;2.92;0.80;;;;;;;;;;6207904;23;20060;-51
2022/04/11 07:37:25;;;;;;;1.67;1.00;;;;;;;;;;6207429;23;20011;-49
2022/04/11 07:39:52;;;;;;;1.40;0.90;;;;;;;;;;6207504;23;20109;-49
2022/04/11 07:42:18;;;;;;;3.38;0.88;;;;;;;;;;6206592;23;20001;-50
2022/04/11 07:44:44;;;;;;;0.88;0.80;;;;;;;;;;6206907;23;20438;-49
2022/04/11 07:47:10;;;;;;;0.68;0.50;;;;;;;;;;6205567;23;20005;-50
2022/04/11 07:49:36;;;;;;;2.17;0.88;;;;;;;;;;6202733;23;20000;-49
2022/04/11 07:52:03;;;;;;;0.88;0.70;;;;;;;;;;6207015;23;20055;-50
2022/04/11 07:54:29;;;;;;;1.67;0.80;;;;;;;;;;6207118;23;20001;-50
2022/04/11 07:56:55;;;;;;;1.63;0.95;;;;;;;;;;6206080;23;20004;-51
2022/04/11 07:59:21;;;;;;;2.38;1.17;;;;;;;;;;6205260;23;20009;-49
2022/04/11 08:01:47;;;;;;;1.90;1.02;;;;;;;;;;6206458;23;20008;-47
2022/04/11 08:04:13;;;;;;;1.88;1.25;;;;;;;;;;6205558;23;20031;-49
2022/04/11 08:06:40;;;;;;;2.00;1.10;;;;;;;;;;6206900;23;20012;-49
2022/04/11 08:09:06;;;;;;;1.75;1.00;;;;;;;;;;6205840;23;20005;-51
2022/04/11 08:11:32;;;;;;;1.60;1.00;;;;;;;;;;6206345;23;20001;-52
2022/04/11 08:13:59;;;;;;;1.83;0.90;;;;;;;;;;6206827;23;20327;-50
2022/04/11 08:16:25;;;;;;;2.35;1.05;;;;;;;;;;6206397;23;20087;-48
2022/04/11 08:18:51;;;;;;;1.15;0.68;;;;;;;;;;6206043;23;20024;-47
2022/04/11 08:21:17;;;;;;;4.32;1.02;;;;;;;;;;6206461;23;20007;-51
2022/04/11 08:23:43;;;;;;;1.70;1.00;;;;;;;;;;6206722;23;20005;-47
2022/04/11 08:26:09;;;;;;;1.67;0.73;;;;;;;;;;6180437;23;20454;-52
2022/04/11 08:28:35;;;;;;;2.85;1.15;;;;;;;;;;6205898;23;20005;-50
2022/04/11 08:31:01;;;;;;;1.55;0.68;;;;;;;;;;6206290;23;20047;-52
2022/04/11 08:33:27;;;;;;;1.33;0.63;;;;;;;;;;6206048;23;20001;-47
2022/04/11 08:35:53;;;;;;;1.40;0.80;;;;;;;;;;6206685;23;20001;-50
2022/04/11 08:38:19;;;;;;;2.88;1.13;;;;;;;;;;6205261;23;20449;-50
2022/04/11 08:40:45;;;;;;;1.08;0.68;;;;;;;;;;6205862;23;20008;-51
2022/04/11 08:43:13;;;;;;;2.53;0.90;;;;;;;;;;6207183;23;20393;-49
2022/04/11 08:45:39;;;;;;;1.67;0.90;;;;;;;;;;6179796;23;20012;-46
2022/04/11 08:48:05;;;;;;;2.40;1.08;;;;;;;;;;6205591;23;20088;-49
2022/04/11 08:50:31;;;;;;;3.13;1.25;;;;;;;;;;6205584;23;20016;-49
2022/04/11 08:52:57;;;;;;;3.33;0.88;;;;;;;;;;6206159;23;20000;-49
2022/04/11 08:55:23;;;;;;;1.73;0.90;;;;;;;;;;6206544;23;20008;-51
2022/04/11 08:57:49;;;;;;;4.63;1.10;;;;;;;;;;6206138;23;20234;-49
2022/04/11 09:00:17;;;;;;;3.20;1.13;;;;;;;;;;6205902;23;20009;-50
2022/04/11 09:02:44;;;;;;;1.33;0.80;;;;;;;;;;6206042;23;20012;-48
2022/04/11 09:05:11;;;;;;;1.25;0.60;;;;;;;;;;6205939;23;20012;-49
2022/04/11 09:07:51;;;;;;;1.75;0.77;;;;;;;;;;6205345;23;20088;-51
2022/04/11 09:10:21;;;;;;;3.35;0.80;;;;;;;;;;6204910;23;20088;-51
2022/04/11 09:12:57;;;;;;;2.65;1.00;;;;;;;;;;6205051;23;20020;-51
2022/04/11 09:15:23;;;;;;;5.35;1.00;;;;;;;;;;6205986;23;20004;-50
2022/04/11 09:17:49;;;;;;;1.25;0.90;;;;;;;;;;6205484;23;20011;-50
2022/04/11 09:20:17;;;;;;;1.27;0.80;;;;;;;;;;6205957;23;20015;-49
2022/04/11 09:22:43;;;;;;;1.58;0.80;;;;;;;;;;6206120;23;20011;-49
2022/04/11 09:25:13;;;;;;;2.20;0.88;;;;;;;;;;6206265;23;20000;-50
2022/04/11 09:27:40;;;;;;;2.47;0.68;;;;;;;;;;6205890;23;20028;-51
2022/04/11 09:30:18;;;;;;;3.05;0.90;;;;;;;;;;6205970;23;20089;-49
2022/04/11 09:32:51;;;;;;;2.00;0.80;;;;;;;;;;6205125;23;20505;-51
2022/04/11 09:35:21;;;;;;;1.42;0.80;;;;;;;;;;6206196;23;20032;-51
2022/04/11 09:37:48;;;;;;;4.95;1.00;;;;;;;;;;6205903;23;20208;-51
2022/04/11 09:40:21;;;;;;;2.47;0.80;;;;;;;;;;6204433;23;20012;-50
2022/04/11 09:42:57;;;;;;;3.63;0.82;;;;;;;;;;6205674;23;20142;-46
2022/04/11 09:45:23;;;;;;;1.65;0.70;;;;;;;;;;6205700;23;20005;-51
2022/04/11 09:48:04;;;;;;;3.03;0.80;;;;;;;;;;6205701;23;20001;-51
2022/04/11 09:50:33;;;;;;;2.53;0.82;;;;;;;;;;6205684;23;20110;-52
2022/04/11 09:53:09;;;;;;;0.88;0.50;;;;;;;;;;6205546;23;20019;-48
2022/04/11 09:55:36;;;;;;;1.63;0.75;;;;;;;;;;6203017;23;20004;-50
2022/04/11 09:58:04;;;;;;;2.38;1.10;;;;;;;;;;6206529;23;20055;-51
2022/04/11 10:00:30;;;;;;;2.20;0.93;;;;;;;;;;6205082;23;20009;-50
2022/04/11 10:03:00;;;;;;;2.15;0.90;;;;;;;;;;6208688;23;20008;-49
2022/04/11 10:05:26;;;;;;;1.30;0.50;;;;;;;;;;6208057;23;20504;-47
2022/04/11 10:07:55;;;;;;;1.92;1.00;;;;;;;;;;6207835;23;20001;-52
2022/04/11 10:10:22;;;;;;;2.75;0.80;;;;;;;;;;6178827;23;20031;-51
2022/04/11 10:12:52;;;;;;;3.08;0.80;;;;;;;;;;6207262;23;20024;-49
2022/04/11 10:15:19;;;;;;;2.75;0.98;;;;;;;;;;6207660;23;20032;-48
2022/04/11 10:17:46;;;;;;;1.77;1.05;;;;;;;;;;6206077;23;20079;-49
2022/04/11 10:20:13;;;;;;;2.92;1.00;;;;;;;;;;6205972;23;20016;-50
2022/04/11 10:22:45;;;;;;;3.40;0.90;;;;;;;;;;6180322;23;20067;-51
2022/04/11 10:25:15;;;;;;;6.15;1.10;;;;;;;;;;6206246;23;20091;-47
2022/04/11 10:27:41;;;;;;;2.15;1.00;;;;;;;;;;6178949;23;20015;-48
2022/04/11 10:30:27;;;;;;;3.67;1.20;;;;;;;;;;6206304;23;20029;-51
2022/04/11 10:32:56;;;;;;;3.38;1.10;;;;;;;;;;6209320;23;20337;-51
2022/04/11 10:35:40;;;;;;;4.80;1.25;;;;;;;;;;6209555;23;20004;-49
2022/04/11 10:38:07;;;;;;;3.67;0.75;;;;;;;;;;6208434;23;20039;-49
2022/04/11 10:40:33;;;;;;;2.85;1.30;;;;;;;;;;6207251;23;20032;-49
2022/04/11 10:42:59;;;;;;;1.70;0.80;;;;;;;;;;6208147;23;20004;-51
2022/04/11 10:45:42;;;;;;;2.95;0.90;;;;;;;;;;6209047;23;20422;-51
2022/04/11 10:48:09;;;;;;;3.00;0.82;;;;;;;;;;6207909;23;20004;-47
2022/04/11 10:50:36;;;;;;;1.60;0.80;;;;;;;;;;6207953;23;20028;-45
2022/04/11 10:53:08;;;;;;;3.63;0.90;;;;;;;;;;6207828;23;20005;-48
2022/04/11 10:55:34;;;;;;;3.45;1.00;;;;;;;;;;6207518;23;20338;-48
2022/04/11 10:58:01;;;;;;;1.10;0.90;;;;;;;;;;6207174;23;20012;-47
2022/04/11 11:00:28;;;;;;;2.45;1.00;;;;;;;;;;6208510;23;20325;-50
2022/04/11 11:02:56;;;;;;;2.28;1.38;;;;;;;;;;6208981;23;20039;-47
2022/04/11 11:05:39;;;;;;;3.63;1.23;;;;;;;;;;6208187;23;20016;-48
2022/04/11 11:08:14;;;;;;;2.53;1.10;;;;;;;;;;6208228;23;20039;-50
2022/04/11 11:10:41;;;;;;;2.92;0.90;;;;;;;;;;6206531;23;20059;-47
2022/04/11 11:13:32;;;;;;;3.83;1.23;;;;;;;;;;6208136;23;20449;-46
2022/04/11 11:16:21;;;;;;;2.58;1.08;;;;;;;;;;6207653;23;20004;-45
2022/04/11 11:18:50;;;;;;;2.33;0.90;;;;;;;;;;6207787;23;20004;-47
2022/04/11 11:21:22;;;;;;;2.35;0.90;;;;;;;;;;6208069;23;20487;-47
2022/04/11 11:24:04;;;;;;;2.45;0.98;;;;;;;;;;6207865;23;20055;-46
2022/04/11 11:26:40;;;;;;;3.50;0.90;;;;;;;;;;6207220;23;20001;-50
2022/04/11 11:29:16;;;;;;;2.75;0.80;;;;;;;;;;6208110;23;20704;-46
2022/04/11 11:31:43;;;;;;;2.58;0.90;;;;;;;;;;6208037;23;20007;-46
2022/04/11 11:34:11;;;;;;;6.75;1.05;;;;;;;;;;6207955;23;20035;-47
2022/04/11 11:36:37;;;;;;;2.85;0.80;;;;;;;;;;6207127;23;20013;-47
2022/04/11 11:39:17;;;;;;;2.72;0.93;;;;;;;;;;6207030;23;20008;-45
2022/04/11 11:41:43;;;;;;;5.57;1.17;;;;;;;;;;6206844;23;20008;-46
2022/04/11 11:44:10;;;;;;;4.47;1.25;;;;;;;;;;6207593;23;20000;-46
2022/04/11 11:47:11;;;;;;;2.63;0.90;;;;;;;;;;6206830;23;20003;-50
2022/04/11 11:49:45;;;;;;;3.33;1.05;;;;;;;;;;6057186;23;20018;-49
2022/04/11 11:52:18;;;;;;;3.90;1.45;;;;;;;;;;6158703;23;20335;-51
2022/04/11 11:54:45;;;;;;;3.17;1.13;;;;;;;;;;6208037;23;20000;-48
2022/04/11 11:57:22;;;;;;;2.42;1.05;;;;;;;;;;6207983;23;20043;-47
2022/04/11 11:59:59;;;;;;;1.88;0.90;;;;;;;;;;6207677;23;20005;-47
2022/04/11 12:05:18;;;;;;;3.15;1.05;;;;;;;;;;6208314;23;20070;-50
2022/04/11 12:07:44;;;;;;;4.50;0.93;;;;;;;;;;6208276;23;20000;-48
2022/04/11 12:10:10;;;;;;;2.45;0.90;;;;;;;;;;6208130;23;20000;-52
2022/04/11 12:12:37;;;;;;;3.78;0.90;;;;;;;;;;6206826;23;20030;-58
2022/04/11 12:15:07;;;;;;;1.67;0.95;;;;;;;;;;6207577;23;20457;-58
2022/04/11 12:17:33;;;;;;;5.20;0.85;;;;;;;;;;6207840;23;20012;-57
2022/04/11 12:20:09;;;;;;;4.53;0.93;;;;;;;;;;6207844;23;20008;-58
2022/04/11 12:22:35;;;;;;;2.67;1.00;;;;;;;;;;6207926;23;20086;-58
2022/04/11 12:25:21;;;;;;;2.15;0.85;;;;;;;;;;6207172;23;20087;-59
2022/04/11 12:27:49;;;;;;;1.13;0.63;;;;;;;;;;6207766;23;20000;-57
2022/04/11 12:30:16;;;;;;;2.50;1.05;;;;;;;;;;6206355;23;20000;-58
2022/04/11 12:32:42;;;;;;;1.42;0.70;;;;;;;;;;6180557;23;20484;-58
2022/04/11 12:35:15;;;;;;;1.73;0.85;;;;;;;;;;6208192;23;20438;-60
2022/04/11 12:37:49;;;;;;;3.33;0.97;;;;;;;;;;6206739;23;20036;-58
2022/04/11 12:40:15;;;;;;;3.03;1.00;;;;;;;;;;6206203;23;20008;-57
2022/04/11 12:42:42;;;;;;;1.83;0.90;;;;;;;;;;6207755;23;20231;-58
2022/04/11 12:45:09;;;;;;;2.03;1.02;;;;;;;;;;6206973;23;20012;-58
2022/04/11 12:47:54;;;;;;;1.92;1.00;;;;;;;;;;6180347;23;20326;-58
2022/04/11 12:50:23;;;;;;;1.55;1.10;;;;;;;;;;6206607;23;19997;-58
2022/04/11 12:52:49;;;;;;;2.10;0.93;;;;;;;;;;6207720;23;20000;-58
2022/04/11 12:55:15;;;;;;;3.40;1.30;;;;;;;;;;6207348;23;20000;-58
2022/04/11 12:57:41;;;;;;;2.15;0.70;;;;;;;;;;6207459;23;20009;-58
2022/04/11 13:00:17;;;;;;;3.03;1.17;;;;;;;;;;6206578;23;20015;-57
2022/04/11 13:02:43;;;;;;;2.38;0.80;;;;;;;;;;6207137;23;20004;-56
2022/04/11 13:05:13;;;;;;;3.38;1.05;;;;;;;;;;6206616;23;20009;-55
2022/04/11 13:07:40;;;;;;;2.45;0.88;;;;;;;;;;6205551;23;20496;-55
2022/04/11 13:10:07;;;;;;;2.35;1.00;;;;;;;;;;6206208;23;20003;-55
2022/04/11 13:12:33;;;;;;;2.47;1.00;;;;;;;;;;6205502;23;20059;-55
2022/04/11 13:14:59;;;;;;;5.45;1.30;;;;;;;;;;6206231;23;20008;-54
2022/04/11 13:20:11;;;;;;;5.13;0.93;;;;;;;;;;6204706;23;20054;-55
2022/04/11 13:22:37;;;;;;;3.33;1.30;;;;;;;;;;6205984;23;20022;-56
2022/04/11 13:25:03;;;;;;;2.63;1.00;;;;;;;;;;6205567;23;20009;-55
2022/04/11 13:27:30;;;;;;;2.33;1.00;;;;;;;;;;6205686;23;20071;-56
2022/04/11 13:29:57;;;;;;;6.00;1.08;;;;;;;;;;6178089;23;20543;-55
2022/04/11 13:32:24;;;;;;;2.90;0.90;;;;;;;;;;6206577;23;20016;-53
2022/04/11 13:34:51;;;;;;;3.63;0.98;;;;;;;;;;6204618;23;20448;-54
2022/04/11 13:37:18;;;;;;;8.13;1.63;;;;;;;;;;6207758;23;20035;-54
2022/04/11 13:39:44;;;;;;;4.63;1.33;;;;;;;;;;6206884;23;20015;-55
2022/04/11 13:42:11;;;;;;;5.30;1.90;;;;;;;;;;6207715;23;20051;-55
2022/04/11 13:44:37;;;;;;;5.97;0.95;;;;;;;;;;6207380;23;20330;-53
2022/04/11 13:47:03;;;;;;;1.77;0.93;;;;;;;;;;6207381;23;20438;-56
2022/04/11 13:49:29;;;;;;;4.47;1.27;;;;;;;;;;6207303;23;20003;-55
2022/04/11 13:51:56;;;;;;;5.10;1.25;;;;;;;;;;6208138;23;20009;-59
2022/04/11 13:54:22;;;;;;;2.28;1.00;;;;;;;;;;6207425;23;20010;-57
2022/04/11 13:56:48;;;;;;;2.83;1.00;;;;;;;;;;6207808;23;20008;-57
2022/04/11 13:59:14;;;;;;;2.63;0.90;;;;;;;;;;6179940;23;20354;-56
2022/04/11 14:01:41;;;;;;;3.42;0.90;;;;;;;;;;6180539;23;20012;-57
2022/04/11 14:04:08;;;;;;;3.03;1.10;;;;;;;;;;6207376;23;20058;-57
2022/04/11 14:06:34;;;;;;;3.90;1.30;;;;;;;;;;6207395;23;20469;-56
2022/04/11 14:09:01;;;;;;;4.80;1.23;;;;;;;;;;6206619;23;20001;-59
2022/04/11 14:11:28;;;;;;;2.55;1.15;;;;;;;;;;6207612;23;20011;-60
2022/04/11 14:13:54;;;;;;;5.03;1.20;;;;;;;;;;6207652;23;20505;-58
2022/04/11 14:16:20;;;;;;;3.33;0.88;;;;;;;;;;6207699;23;20381;-58
2022/04/11 14:18:46;;;;;;;1.95;0.80;;;;;;;;;;6206138;23;20319;-60
2022/04/11 14:21:12;;;;;;;4.18;1.13;;;;;;;;;;6206056;23;20004;-59
2022/04/11 14:23:39;;;;;;;1.83;0.90;;;;;;;;;;6208036;23;20016;-57
2022/04/11 14:26:05;;;;;;;5.28;1.23;;;;;;;;;;6208939;23;20371;-59
2022/04/11 14:28:31;;;;;;;5.00;1.10;;;;;;;;;;6208723;23;20005;-59
2022/04/11 14:30:57;;;;;;;2.45;1.10;;;;;;;;;;6208817;23;20119;-59
2022/04/11 14:33:23;;;;;;;2.28;1.08;;;;;;;;;;6207900;23;20135;-59
2022/04/11 14:35:50;;;;;;;3.08;0.90;;;;;;;;;;6208303;23;20004;-59
2022/04/11 14:38:16;;;;;;;2.92;1.13;;;;;;;;;;6181542;23;20009;-61
2022/04/11 14:40:42;;;;;;;2.00;0.90;;;;;;;;;;6208634;23;20009;-59
2022/04/11 14:43:09;;;;;;;3.50;1.25;;;;;;;;;;6208948;23;20083;-60
2022/04/11 14:45:35;;;;;;;3.72;0.88;;;;;;;;;;6208079;23;20009;-60
2022/04/11 14:48:02;;;;;;;2.60;1.10;;;;;;;;;;6207833;23;20008;-58
2022/04/11 14:50:28;;;;;;;3.53;1.10;;;;;;;;;;6208550;23;20004;-60